Time;durP1;ratioP1;P1;durP2;ratioP2;P2;SDS_P1;SDS_P2;PMS_P1;PMS_P2;Temp;Humidity;BMP_temperature;BMP_pressure;BME280_temperature;BME280_humidity;BME280_pressure;Samples;Min_cycle;Max_cycle;Signal;HPM_P1;HPM_P2
2019/12/04 00:00:46;;;;;;;28.8;23.6;;;;;;;;;;;;;
2019/12/04 00:03:11;;;;;;;27.3;24.3;;;;;;;;;;;;;
2019/12/04 00:05:36;;;;;;;27.7;24.8;;;;;;;;;;;;;
2019/12/04 00:08:01;;;;;;;27.5;24.5;;;;;;;;;;;;;
2019/12/04 00:10:26;;;;;;;30.8;25.7;;;;;;;;;;;;;
2019/12/04 00:12:51;;;;;;;31.3;26.1;;;;;;;;;;;;;
2019/12/04 00:15:16;;;;;;;30.8;26.5;;;;;;;;;;;;;
2019/12/04 00:17:42;;;;;;;31.2;26.9;;;;;;;;;;;;;
2019/12/04 00:20:07;;;;;;;31.4;26.5;;;;;;;;;;;;;
2019/12/04 00:22:32;;;;;;;30.3;27;;;;;;;;;;;;;
2019/12/04 00:24:57;;;;;;;33.4;29.8;;;;;;;;;;;;;
2019/12/04 00:27:22;;;;;;;32;28.5;;;;;;;;;;;;;
2019/12/04 00:29:52;;;;;;;31.8;28.4;;;;;;;;;;;;;
2019/12/04 00:37:02;;;;;;;31.2;27.8;;;;;;;;;;;;;
2019/12/04 00:39:27;;;;;;;35.1;29;;;;;;;;;;;;;
2019/12/04 00:41:52;;;;;;;33.5;28.3;;;;;;;;;;;;;
2019/12/04 00:44:17;;;;;;;34.5;29.9;;;;;;;;;;;;;
2019/12/04 00:46:42;;;;;;;34.6;30.6;;;;;;;;;;;;;
2019/12/04 00:49:07;;;;;;;34.2;29.8;;;;;;;;;;;;;
2019/12/04 00:51:32;;;;;;;33;29.4;;;;;;;;;;;;;
2019/12/04 00:53:57;;;;;;;36.1;31.2;;;;;;;;;;;;;
2019/12/04 00:56:23;;;;;;;37.4;31.2;;;;;;;;;;;;;
2019/12/04 00:58:48;;;;;;;37.8;32;;;;;;;;;;;;;
2019/12/04 01:01:13;;;;;;;37.4;31.7;;;;;;;;;;;;;
2019/12/04 01:03:38;;;;;;;34.1;30.4;;;;;;;;;;;;;
2019/12/04 01:06:03;;;;;;;35.8;31.1;;;;;;;;;;;;;
2019/12/04 01:08:28;;;;;;;36.7;31.7;;;;;;;;;;;;;
2019/12/04 01:10:53;;;;;;;37.3;32.7;;;;;;;;;;;;;
2019/12/04 01:13:19;;;;;;;37.7;33.4;;;;;;;;;;;;;
2019/12/04 01:15:44;;;;;;;37.7;32.4;;;;;;;;;;;;;
2019/12/04 01:18:09;;;;;;;38.5;33.5;;;;;;;;;;;;;
2019/12/04 01:20:34;;;;;;;38.4;33.3;;;;;;;;;;;;;
2019/12/04 01:23:13;;;;;;;37.2;32.3;;;;;;;;;;;;;
2019/12/04 01:27:50;;;;;;;35.9;31.9;;;;;;;;;;;;;
2019/12/04 01:32:42;;;;;;;35.7;30.9;;;;;;;;;;;;;
2019/12/04 01:35:04;;;;;;;36.6;32.3;;;;;;;;;;;;;
2019/12/04 01:37:29;;;;;;;38.6;33.3;;;;;;;;;;;;;
2019/12/04 01:39:55;;;;;;;36;31.9;;;;;;;;;;;;;
2019/12/04 01:42:20;;;;;;;35.9;32;;;;;;;;;;;;;
2019/12/04 01:44:45;;;;;;;36.4;32.1;;;;;;;;;;;;;
2019/12/04 01:47:10;;;;;;;38.5;32.9;;;;;;;;;;;;;
2019/12/04 01:49:35;;;;;;;37.4;33;;;;;;;;;;;;;
2019/12/04 01:52:00;;;;;;;36.4;32;;;;;;;;;;;;;
2019/12/04 01:54:25;;;;;;;39.8;32.7;;;;;;;;;;;;;
2019/12/04 01:56:50;;;;;;;36.8;32.8;;;;;;;;;;;;;
2019/12/04 01:59:15;;;;;;;36.8;32.3;;;;;;;;;;;;;
2019/12/04 02:01:41;;;;;;;38.4;33.6;;;;;;;;;;;;;
2019/12/04 02:04:06;;;;;;;37.3;32;;;;;;;;;;;;;
2019/12/04 02:06:31;;;;;;;38.4;34;;;;;;;;;;;;;
2019/12/04 02:08:56;;;;;;;37.3;32.6;;;;;;;;;;;;;
2019/12/04 02:11:21;;;;;;;37.1;32;;;;;;;;;;;;;
2019/12/04 02:13:46;;;;;;;36.9;32.9;;;;;;;;;;;;;
2019/12/04 02:16:11;;;;;;;37.1;33;;;;;;;;;;;;;
2019/12/04 02:18:36;;;;;;;36.4;32.5;;;;;;;;;;;;;
2019/12/04 02:21:01;;;;;;;38.6;33.6;;;;;;;;;;;;;
2019/12/04 02:23:26;;;;;;;35.5;31.7;;;;;;;;;;;;;
2019/12/04 02:25:53;;;;;;;37.6;32.5;;;;;;;;;;;;;
2019/12/04 02:33:09;;;;;;;40.1;33.8;;;;;;;;;;;;;
2019/12/04 02:35:31;;;;;;;36.7;32;;;;;;;;;;;;;
2019/12/04 02:37:57;;;;;;;35;30.9;;;;;;;;;;;;;
2019/12/04 02:40:22;;;;;;;34;30;;;;;;;;;;;;;
2019/12/04 02:42:47;;;;;;;35.3;31.5;;;;;;;;;;;;;
2019/12/04 02:45:12;;;;;;;35.4;30.9;;;;;;;;;;;;;
2019/12/04 02:47:37;;;;;;;35.6;31;;;;;;;;;;;;;
2019/12/04 02:50:02;;;;;;;35.1;31.3;;;;;;;;;;;;;
2019/12/04 02:52:27;;;;;;;34.3;30.7;;;;;;;;;;;;;
2019/12/04 02:54:52;;;;;;;37.8;32.1;;;;;;;;;;;;;
2019/12/04 02:57:17;;;;;;;35;31.2;;;;;;;;;;;;;
2019/12/04 02:59:42;;;;;;;35.8;31.9;;;;;;;;;;;;;
2019/12/04 03:02:07;;;;;;;35.5;31.2;;;;;;;;;;;;;
2019/12/04 03:04:33;;;;;;;35;31;;;;;;;;;;;;;
2019/12/04 03:06:58;;;;;;;35.9;31.5;;;;;;;;;;;;;
2019/12/04 03:10:28;;;;;;;35.3;30.5;;;;;;;;;;;;;
2019/12/04 03:11:57;;;;;;;34.5;30.8;;;;;;;;;;;;;
2019/12/04 03:14:13;;;;;;;33.3;29.8;;;;;;;;;;;;;
2019/12/04 03:16:38;;;;;;;33.5;30;;;;;;;;;;;;;
2019/12/04 03:19:03;;;;;;;34.4;30.7;;;;;;;;;;;;;
2019/12/04 03:21:28;;;;;;;33.8;30.2;;;;;;;;;;;;;
2019/12/04 03:23:53;;;;;;;32.4;28.9;;;;;;;;;;;;;
2019/12/04 03:26:18;;;;;;;33.7;29.8;;;;;;;;;;;;;
2019/12/04 03:28:43;;;;;;;32.8;29.3;;;;;;;;;;;;;
2019/12/04 03:31:09;;;;;;;33.5;29.8;;;;;;;;;;;;;
2019/12/04 03:33:34;;;;;;;32.4;28.9;;;;;;;;;;;;;
2019/12/04 03:36:03;;;;;;;32.5;29;;;;;;;;;;;;;
2019/12/04 03:38:38;;;;;;;32.8;29.3;;;;;;;;;;;;;
2019/12/04 03:40:49;;;;;;;32.1;28.5;;;;;;;;;;;;;
2019/12/04 03:43:14;;;;;;;30.9;27.5;;;;;;;;;;;;;
2019/12/04 03:45:39;;;;;;;32;28.7;;;;;;;;;;;;;
2019/12/04 03:48:04;;;;;;;31.4;28;;;;;;;;;;;;;
2019/12/04 03:50:29;;;;;;;32;28.5;;;;;;;;;;;;;
2019/12/04 03:52:54;;;;;;;31.5;28.1;;;;;;;;;;;;;
2019/12/04 03:55:20;;;;;;;31.9;28.5;;;;;;;;;;;;;
2019/12/04 03:57:45;;;;;;;31.3;28;;;;;;;;;;;;;
2019/12/04 04:02:28;;;;;;;32.9;29.3;;;;;;;-0.87;89.93945;965.1239;;;;
2019/12/04 04:04:53;;;;;;;30;26.7;;;;;;;-0.79;89.51953;965.1219;;;;
2019/12/04 04:07:25;;;;;;;30.5;27.3;;;;;;;-0.76;89.41504;965.116;;;;
2019/12/04 04:09:46;;;;;;;31.8;28.3;;;;;;;-0.79;89.71094;965.1241;;;;
2019/12/04 04:13:00;;;;;;;32.3;28.8;;;;;;;-0.84;90.04785;965.2039;;;;
2019/12/04 04:14:38;;;;;;;32.1;28.7;;;;;;;-0.79;89.72168;965.1177;;;;
2019/12/04 04:16:59;;;;;;;32.9;29.3;;;;;;;-0.87;90.10547;965.123;;;;
2019/12/04 04:19:24;;;;;;;33.7;30;;;;;;;-0.93;90.64551;965.1679;;;;
2019/12/04 04:21:49;;;;;;;33.6;30;;;;;;;-0.88;90.12793;965.1541;;;;
2019/12/04 04:24:14;;;;;;;32.1;28.6;;;;;;;-0.85;90.23535;965.1277;;;;
2019/12/04 04:26:39;;;;;;;34.4;30.7;;;;;;;-0.88;90.75586;965.098;;;;
2019/12/04 04:29:04;;;;;;;35.4;31.6;;;;;;;-0.85;90.57129;965.1373;;;;
2019/12/04 04:31:29;;;;;;;33.1;29.6;;;;;;;-0.76;89.72754;965.1269;;;;
2019/12/04 04:33:54;;;;;;;35.2;31.5;;;;;;;-0.95;90.69531;965.0714;;;;
2019/12/04 04:36:19;;;;;;;35.2;31.2;;;;;;;-1.04;91.14844;965.0628;;;;
2019/12/04 04:38:45;;;;;;;37.3;32.5;;;;;;;-1.11;91.56738;965.07;;;;
2019/12/04 04:41:10;;;;;;;35.7;31.5;;;;;;;-0.77;89.94922;964.9807;;;;
2019/12/04 04:43:35;;;;;;;34.8;31.1;;;;;;;-0.95;90.63965;964.8963;;;;
2019/12/04 04:46:02;;;;;;;34.5;30.4;;;;;;;-0.84;90.00391;964.9335;;;;
2019/12/04 04:48:26;;;;;;;34.5;30.9;;;;;;;-0.98;90.65625;964.8807;;;;
2019/12/04 04:50:51;;;;;;;34.3;30.6;;;;;;;-1.1;90.91992;964.9037;;;;
2019/12/04 04:53:19;;;;;;;34.7;30.9;;;;;;;-1.13;91.23926;964.9241;;;;
2019/12/04 04:58:06;;;;;;;34.2;30.5;;;;;;;-1;91.00879;964.8756;;;;
2019/12/04 05:00:32;;;;;;;35;30.3;;;;;;;-1.11;90.75;964.8791;;;;
2019/12/04 05:02:57;;;;;;;34.4;30.7;;;;;;;-1.12;90.79297;964.9101;;;;
2019/12/04 05:05:22;;;;;;;33.1;29.5;;;;;;;-1.07;90.44629;964.8733;;;;
2019/12/04 05:07:48;;;;;;;32.9;29.4;;;;;;;-0.98;90.18555;964.9523;;;;
2019/12/04 05:10:13;;;;;;;34.9;31.2;;;;;;;-1.15;90.63086;965.0281;;;;
2019/12/04 05:12:38;;;;;;;34.6;30;;;;;;;-1.07;90.54688;964.9644;;;;
2019/12/04 05:15:04;;;;;;;33.4;29.3;;;;;;;-1.05;90.21484;964.9375;;;;
2019/12/04 05:17:29;;;;;;;33.4;29.8;;;;;;;-0.98;90.20801;964.9908;;;;
2019/12/04 05:19:54;;;;;;;33.2;29.6;;;;;;;-0.94;89.65723;964.9081;;;;
2019/12/04 05:22:24;;;;;;;33.8;30.2;;;;;;;-0.9;89.51953;964.9673;;;;
2019/12/04 05:24:44;;;;;;;34.8;30.3;;;;;;;-0.99;89.7041;964.9984;;;;
2019/12/04 05:27:10;;;;;;;35.2;31.5;;;;;;;-1.09;90.29688;964.9302;;;;
2019/12/04 05:29:35;;;;;;;35.8;31.9;;;;;;;-1.28;90.92871;964.94;;;;
2019/12/04 05:32:00;;;;;;;35.6;31.3;;;;;;;-1.07;90.11035;964.8406;;;;
2019/12/04 05:34:25;;;;;;;35.1;31.2;;;;;;;-1.08;90.04102;964.8873;;;;
2019/12/04 05:36:50;;;;;;;36.1;32.1;;;;;;;-1.16;90.55078;964.8375;;;;
2019/12/04 05:39:15;;;;;;;35.9;31.3;;;;;;;-1.15;90.86621;964.7796;;;;
2019/12/04 05:41:40;;;;;;;35.3;31.5;;;;;;;-1.17;90.70508;964.8491;;;;
2019/12/04 05:44:06;;;;;;;36;32.1;;;;;;;-1.15;90.7666;964.8158;;;;
2019/12/04 05:46:31;;;;;;;35.2;31.4;;;;;;;-1.2;90.74414;964.7836;;;;
2019/12/04 05:48:57;;;;;;;34.5;30.8;;;;;;;-1.01;89.94434;964.7406;;;;
2019/12/04 05:51:22;;;;;;;37.7;32.4;;;;;;;-1.17;90.25781;964.7522;;;;
2019/12/04 05:53:47;;;;;;;38;33.3;;;;;;;-1.24;90.74609;964.8137;;;;
2019/12/04 05:56:12;;;;;;;35.6;31.7;;;;;;;-1.16;90.47168;964.8983;;;;
2019/12/04 05:58:38;;;;;;;37.3;32.9;;;;;;;-1.15;90.39551;964.8593;;;;
2019/12/04 06:01:03;;;;;;;36.4;31.9;;;;;;;-1.12;90.34766;964.8192;;;;
2019/12/04 06:03:28;;;;;;;36;31.4;;;;;;;-1.15;90.3418;964.7614;;;;
2019/12/04 06:05:53;;;;;;;36;31.6;;;;;;;-1.23;90.28906;964.853;;;;
2019/12/04 06:08:18;;;;;;;38.3;32.8;;;;;;;-1.31;91.08691;964.8438;;;;
2019/12/04 06:10:54;;;;;;;37.6;32.5;;;;;;;-1.23;90.85938;964.8159;;;;
2019/12/04 06:13:13;;;;;;;38.5;33.5;;;;;;;-1.32;91.17578;964.8605;;;;
2019/12/04 06:15:33;;;;;;;36.2;32.1;;;;;;;-1.26;90.86523;964.806;;;;
2019/12/04 06:17:59;;;;;;;38;33;;;;;;;-1.32;90.75098;964.823;;;;
2019/12/04 06:20:24;;;;;;;38.1;33.4;;;;;;;-1.36;90.8418;964.8448;;;;
2019/12/04 06:22:49;;;;;;;36.1;32.2;;;;;;;-1.22;90.22363;964.7759;;;;
2019/12/04 06:25:25;;;;;;;38;32.8;;;;;;;-1.24;90.10742;964.8226;;;;
2019/12/04 06:27:50;;;;;;;40.1;34.1;;;;;;;-1.41;90.93457;964.842;;;;
2019/12/04 06:30:16;;;;;;;39.3;33.5;;;;;;;-1.43;90.87305;964.8164;;;;
2019/12/04 06:32:41;;;;;;;36.4;32.2;;;;;;;-1.3;90.03809;964.8189;;;;
2019/12/04 06:35:06;;;;;;;37.3;32.3;;;;;;;-1.36;90.20605;964.7821;;;;
2019/12/04 06:37:31;;;;;;;37;32.8;;;;;;;-1.41;90.31738;964.8024;;;;
2019/12/04 06:39:56;;;;;;;36.9;32.1;;;;;;;-1.41;90.44043;964.8134;;;;
2019/12/04 06:42:22;;;;;;;38.7;33.1;;;;;;;-1.45;90.77734;964.8563;;;;
2019/12/04 06:44:47;;;;;;;36.4;32.4;;;;;;;-1.3;90.19531;964.9211;;;;
2019/12/04 06:47:12;;;;;;;36.6;31.6;;;;;;;-1.29;89.93945;964.9282;;;;
2019/12/04 06:49:37;;;;;;;37.1;32;;;;;;;-1.32;90.61621;964.9397;;;;
2019/12/04 06:52:02;;;;;;;38.3;33.6;;;;;;;-1.41;90.85254;965.0034;;;;
2019/12/04 06:54:28;;;;;;;39.7;34.3;;;;;;;-1.47;90.75098;965.0215;;;;
2019/12/04 06:59:19;;;;;;;34.7;30.5;;;;;;;-1.31;90.23926;965.0513;;;;
2019/12/04 07:01:43;;;;;;;36;31.2;;;;;;;-1.19;89.32227;965.0391;;;;
2019/12/04 07:04:08;;;;;;;40.1;33.5;;;;;;;-1.28;89.84082;965.0436;;;;
2019/12/04 07:06:34;;;;;;;36.9;31.2;;;;;;;-1.11;89.28516;965.0636;;;;
2019/12/04 07:08:59;;;;;;;38.4;32.5;;;;;;;-1.13;89.23438;965.0335;;;;
2019/12/04 07:11:24;;;;;;;38.9;33.1;;;;;;;-1.19;89.80566;965.0895;;;;
2019/12/04 07:13:49;;;;;;;40.3;33.6;;;;;;;-1.26;90.13574;965.079;;;;
2019/12/04 07:16:15;;;;;;;36.2;32.1;;;;;;;-1.23;90.19922;965.0864;;;;
2019/12/04 07:18:40;;;;;;;38.5;32.8;;;;;;;-1.18;90.02051;965.126;;;;
2019/12/04 07:21:05;;;;;;;35.1;30.9;;;;;;;-1.06;89.19434;965.0764;;;;
2019/12/04 07:23:37;;;;;;;36.7;31.2;;;;;;;-0.91;88.62109;965.046;;;;
2019/12/04 07:25:57;;;;;;;37.7;33.3;;;;;;;-1.15;89.37891;965.07;;;;
2019/12/04 07:28:22;;;;;;;39.7;33.9;;;;;;;-1.11;89.00488;965.0818;;;;
2019/12/04 07:30:47;;;;;;;37.3;32.5;;;;;;;-1.1;88.97168;965.0214;;;;
2019/12/04 07:33:12;;;;;;;38.7;33;;;;;;;-1.17;89.30566;965.0144;;;;
2019/12/04 07:35:37;;;;;;;36.3;32.2;;;;;;;-1.1;89.49805;964.9462;;;;
2019/12/04 07:38:03;;;;;;;39.6;33.8;;;;;;;-1.25;90.2627;964.9489;;;;
2019/12/04 07:40:28;;;;;;;39.7;35;;;;;;;-1.29;90.38672;965.0005;;;;
2019/12/04 07:42:53;;;;;;;40.5;35.6;;;;;;;-1.24;90.33105;964.993;;;;
2019/12/04 07:45:18;;;;;;;42;33.8;;;;;;;-1.18;90.06348;965.0362;;;;
2019/12/04 07:47:44;;;;;;;38.4;33.9;;;;;;;-1.18;90.20898;965.041;;;;
2019/12/04 07:50:09;;;;;;;39.8;34.9;;;;;;;-1.15;90.42871;965.041;;;;
2019/12/04 07:52:35;;;;;;;42.4;35.4;;;;;;;-1.25;90.64258;964.9749;;;;
2019/12/04 07:55:00;;;;;;;41.8;35.5;;;;;;;-1.11;90.73926;964.9564;;;;
2019/12/04 07:57:26;;;;;;;40.8;35.3;;;;;;;-1.28;90.69141;964.9908;;;;
2019/12/04 07:59:51;;;;;;;42.2;35.9;;;;;;;-1.18;90.04102;965.0435;;;;
2019/12/04 08:02:16;;;;;;;43.4;36.8;;;;;;;-1.23;90.32227;965.0551;;;;
2019/12/04 08:04:41;;;;;;;42.5;36.7;;;;;;;-1.39;91.19434;965.057;;;;
2019/12/04 08:07:07;;;;;;;44.4;37.2;;;;;;;-1.32;91.05273;965.0503;;;;
2019/12/04 08:09:32;;;;;;;39.2;35;;;;;;;-1.2;90.16211;965.1113;;;;
2019/12/04 08:11:58;;;;;;;41.7;34.8;;;;;;;-1.19;89.37793;965.0988;;;;
2019/12/04 08:14:25;;;;;;;40.8;35.4;;;;;;;-1.1;89.70117;965.1336;;;;
2019/12/04 08:16:48;;;;;;;41.8;34.6;;;;;;;-1.05;88.74805;965.1809;;;;
2019/12/04 08:19:13;;;;;;;42.4;34.7;;;;;;;-1.08;88.98828;965.1739;;;;
2019/12/04 08:21:39;;;;;;;40.1;35;;;;;;;-0.95;88.26465;965.1353;;;;
2019/12/04 08:24:04;;;;;;;38.8;33.2;;;;;;;-0.83;87.60742;965.0574;;;;
2019/12/04 08:26:30;;;;;;;39.9;33.8;;;;;;;-0.82;87.04688;965.0611;;;;
2019/12/04 08:28:55;;;;;;;40.4;34.9;;;;;;;-0.97;88.41797;965.1833;;;;
2019/12/04 08:31:20;;;;;;;42.7;35.8;;;;;;;-1.03;88.22559;965.0402;;;;
2019/12/04 08:33:46;;;;;;;39.6;34.2;;;;;;;-1.04;87.8877;965.092;;;;
2019/12/04 08:36:11;;;;;;;37.7;33.6;;;;;;;-0.89;87.79395;964.9938;;;;
2019/12/04 08:38:36;;;;;;;40.4;33.3;;;;;;;-0.66;86.75684;965.0485;;;;
2019/12/04 08:41:01;;;;;;;40.3;34.6;;;;;;;-0.87;88.00098;965.0066;;;;
2019/12/04 08:43:27;;;;;;;37.6;33.4;;;;;;;-0.72;87.14746;964.9642;;;;
2019/12/04 08:45:52;;;;;;;35.6;31.7;;;;;;;-0.75;86.51465;964.9934;;;;
2019/12/04 08:48:17;;;;;;;43.4;35.2;;;;;;;-0.86;86.89551;965.0106;;;;
2019/12/04 08:50:42;;;;;;;39.9;34.4;;;;;;;-0.91;87.46777;964.9772;;;;
2019/12/04 08:53:08;;;;;;;40.6;35;;;;;;;-1;88.34277;965.0346;;;;
2019/12/04 08:55:33;;;;;;;43.2;36;;;;;;;-1.04;88.41602;964.9989;;;;
2019/12/04 08:57:59;;;;;;;42.4;35.5;;;;;;;-0.91;88.15039;964.9548;;;;
2019/12/04 09:00:49;;;;;;;41;35.6;;;;;;;-0.88;87.91016;964.9788;;;;
2019/12/04 09:02:49;;;;;;;39.6;35.3;;;;;;;-1.01;88.5;965.0014;;;;
2019/12/04 09:05:14;;;;;;;42.4;35.8;;;;;;;-0.92;88.60645;964.967;;;;
2019/12/04 09:07:39;;;;;;;41.6;35.6;;;;;;;-0.86;88.42871;964.9681;;;;
2019/12/04 09:10:05;;;;;;;41.1;36.5;;;;;;;-0.98;88.47168;965.0483;;;;
2019/12/04 09:12:30;;;;;;;44.9;37.1;;;;;;;-0.91;88.375;965.0047;;;;
2019/12/04 09:14:56;;;;;;;40.9;36.4;;;;;;;-0.99;88.70508;965.0772;;;;
2019/12/04 09:17:21;;;;;;;40;35.6;;;;;;;-0.93;88.19141;965.0831;;;;
2019/12/04 09:19:46;;;;;;;43;35.4;;;;;;;-0.85;88.78906;965.0375;;;;
2019/12/04 09:22:12;;;;;;;38.4;34.2;;;;;;;-0.69;87.73633;964.9878;;;;
2019/12/04 09:24:37;;;;;;;37.8;33.7;;;;;;;-0.58;86.96387;965.0842;;;;
2019/12/04 09:27:02;;;;;;;39.8;34.4;;;;;;;-0.76;87.83301;965.0319;;;;
2019/12/04 09:29:28;;;;;;;39.4;35.1;;;;;;;-0.66;87.28223;965.014;;;;
2019/12/04 09:31:53;;;;;;;42.7;34.9;;;;;;;-0.66;87.39648;965.0533;;;;
2019/12/04 09:34:19;;;;;;;39.9;33.7;;;;;;;-0.55;87.81055;965.0405;;;;
2019/12/04 09:36:44;;;;;;;40;34;;;;;;;-0.5;87.12695;965.0528;;;;
2019/12/04 09:39:09;;;;;;;39.6;34.3;;;;;;;-0.48;87.67773;965.0403;;;;
2019/12/04 09:41:34;;;;;;;36.2;32.3;;;;;;;-0.29;86.56348;965.0881;;;;
2019/12/04 09:44:00;;;;;;;33;29.4;;;;;;;-0.1;86.42285;965.1177;;;;
2019/12/04 09:46:25;;;;;;;34.8;31.1;;;;;;;0.08;85.25977;965.1423;;;;
2019/12/04 09:48:50;;;;;;;34;30.3;;;;;;;-0.04;85.32227;965.1177;;;;
2019/12/04 09:51:15;;;;;;;35.3;31.4;;;;;;;-0.04;85.61426;965.036;;;;
2019/12/04 09:53:40;;;;;;;35;30.6;;;;;;;0.11;84.71484;965.073;;;;
2019/12/04 09:56:05;;;;;;;34.9;30.4;;;;;;;0.1;84.9375;964.9955;;;;
2019/12/04 09:58:30;;;;;;;33.2;29.6;;;;;;;0.09;84.2959;964.9461;;;;
2019/12/04 10:00:56;;;;;;;33.1;27.8;;;;;;;0.17;84.35645;964.8992;;;;
2019/12/04 10:03:21;;;;;;;31.2;27.8;;;;;;;0.23;84.1875;964.9149;;;;
2019/12/04 10:05:46;;;;;;;30.2;27;;;;;;;0.22;83.49902;964.803;;;;
2019/12/04 10:08:11;;;;;;;30.2;26.2;;;;;;;0.39;82.99414;964.788;;;;
2019/12/04 10:10:36;;;;;;;31.3;26.6;;;;;;;0.46;82.90625;964.7708;;;;
2019/12/04 10:13:10;;;;;;;30;26.3;;;;;;;0.41;83.30176;964.7305;;;;
2019/12/04 10:15:26;;;;;;;28.8;25.7;;;;;;;0.56;82.51074;964.6956;;;;
2019/12/04 10:17:51;;;;;;;30.2;25.6;;;;;;;0.61;81.7666;964.6707;;;;
2019/12/04 10:20:16;;;;;;;29.1;26;;;;;;;0.63;81.36621;964.6281;;;;
2019/12/04 10:22:41;;;;;;;28.7;23.8;;;;;;;0.71;80.57227;964.6003;;;;
2019/12/04 10:25:06;;;;;;;29.1;25.2;;;;;;;0.71;80.68457;964.5834;;;;
2019/12/04 10:27:31;;;;;;;26.6;23.2;;;;;;;0.76;80.81738;964.5201;;;;
2019/12/04 10:29:56;;;;;;;25.6;22;;;;;;;0.93;78.8916;964.5511;;;;
2019/12/04 10:32:22;;;;;;;26.4;23.5;;;;;;;0.63;80.40918;964.5433;;;;
2019/12/04 10:34:47;;;;;;;25.9;23.1;;;;;;;0.58;80.97363;964.5383;;;;
2019/12/04 10:37:12;;;;;;;25.1;22.5;;;;;;;0.76;80.51367;964.4575;;;;
2019/12/04 10:39:37;;;;;;;26.3;23.4;;;;;;;0.66;80.75293;964.4048;;;;
2019/12/04 10:42:02;;;;;;;28.5;24;;;;;;;0.66;81.31543;964.462;;;;
2019/12/04 10:44:27;;;;;;;26.1;22.5;;;;;;;0.84;80.65234;964.337;;;;
2019/12/04 10:51:42;;;;;;;25.2;22.6;;;;;;;0.89;80.48242;964.2068;;;;
2019/12/04 10:54:07;;;;;;;25.1;22.4;;;;;;;1.02;79.94434;964.2647;;;;
2019/12/04 10:56:32;;;;;;;26.3;23.5;;;;;;;0.96;80.21387;964.135;;;;
2019/12/04 10:58:58;;;;;;;26;22.5;;;;;;;1.02;79.94531;964.1199;;;;
2019/12/04 11:01:23;;;;;;;24.9;22.2;;;;;;;1.18;79.40039;964.0701;;;;
2019/12/04 11:03:48;;;;;;;26.9;24.1;;;;;;;1.02;79.63965;964.0634;;;;
2019/12/04 11:06:13;;;;;;;26.9;24;;;;;;;1.01;79.77344;964.0465;;;;
2019/12/04 11:08:38;;;;;;;26.6;23.8;;;;;;;1.14;79.83301;964.0109;;;;
2019/12/04 11:11:04;;;;;;;26.2;23.4;;;;;;;1.36;78.47656;964.0491;;;;
2019/12/04 11:13:29;;;;;;;27;24.1;;;;;;;1.15;79.51855;963.9637;;;;
2019/12/04 11:15:56;;;;;;;27;24.1;;;;;;;1.22;79.22656;963.9414;;;;
2019/12/04 11:18:20;;;;;;;27.4;24.4;;;;;;;1.09;80.31738;963.916;;;;
2019/12/04 11:20:46;;;;;;;27.3;24.4;;;;;;;1.24;79.64648;963.9067;;;;
2019/12/04 11:23:11;;;;;;;25.8;22.9;;;;;;;1.3;79.99609;963.8918;;;;
2019/12/04 11:25:36;;;;;;;28.5;25.2;;;;;;;1.28;79.81445;963.764;;;;
2019/12/04 11:28:01;;;;;;;29.1;25.4;;;;;;;1.19;80.27051;963.7946;;;;
2019/12/04 11:30:26;;;;;;;29.3;25.5;;;;;;;1.16;80.24121;963.7918;;;;
2019/12/04 11:32:52;;;;;;;29.1;25.4;;;;;;;1.1;80.63477;963.7617;;;;
2019/12/04 11:35:17;;;;;;;29.1;26;;;;;;;1.15;80.47559;963.7598;;;;
2019/12/04 11:37:43;;;;;;;28.3;25;;;;;;;1.25;80.06836;963.686;;;;
2019/12/04 11:40:08;;;;;;;28.1;24;;;;;;;1.33;79.9707;963.6741;;;;
2019/12/04 11:42:33;;;;;;;25.7;22.9;;;;;;;1.49;79.34668;963.6592;;;;
2019/12/04 11:44:58;;;;;;;25.8;23;;;;;;;1.52;79.1709;963.6064;;;;
2019/12/04 11:47:23;;;;;;;24.9;22.3;;;;;;;1.49;79.00879;963.6283;;;;
2019/12/04 11:49:49;;;;;;;25.3;22.6;;;;;;;1.54;78.45313;963.5098;;;;
2019/12/04 11:52:14;;;;;;;25.9;23;;;;;;;1.55;78.46777;963.517;;;;
2019/12/04 11:54:39;;;;;;;23;20.5;;;;;;;1.76;77.66992;963.5956;;;;
2019/12/04 11:57:04;;;;;;;23.4;20.9;;;;;;;1.75;78.26758;963.6317;;;;
2019/12/04 11:59:30;;;;;;;20.5;18.3;;;;;;;1.9;76.35547;963.5963;;;;
2019/12/04 12:01:55;;;;;;;20.2;17.8;;;;;;;2.06;74.89551;963.5219;;;;
2019/12/04 12:04:21;;;;;;;20.4;17.6;;;;;;;2.11;75.25195;963.4996;;;;
2019/12/04 12:06:46;;;;;;;20.7;17.9;;;;;;;1.96;75.0459;963.524;;;;
2019/12/04 12:09:11;;;;;;;20.9;18.6;;;;;;;2.07;75.80957;963.5642;;;;
2019/12/04 12:11:36;;;;;;;19.1;17.1;;;;;;;2.08;75.59668;963.5589;;;;
2019/12/04 12:14:02;;;;;;;18.6;16.3;;;;;;;2.05;75.81934;963.5367;;;;
2019/12/04 12:16:27;;;;;;;19.9;17.6;;;;;;;2.05;74.63281;963.4481;;;;
2019/12/04 12:18:52;;;;;;;18.6;16.7;;;;;;;2.02;75;963.3871;;;;
2019/12/04 12:21:18;;;;;;;22.2;17.9;;;;;;;2.14;74.64844;963.3978;;;;
2019/12/04 12:23:43;;;;;;;19.8;17.6;;;;;;;2.1;74.13477;963.4022;;;;
2019/12/04 12:26:08;;;;;;;19.8;17.7;;;;;;;2.05;74.33984;963.4095;;;;
2019/12/04 12:28:34;;;;;;;19.6;17;;;;;;;2.1;74.28125;963.3884;;;;
2019/12/04 12:30:59;;;;;;;20.2;17.8;;;;;;;2.25;73.93359;963.3783;;;;
2019/12/04 12:33:24;;;;;;;18.8;16.3;;;;;;;2.24;72.99512;963.3158;;;;
2019/12/04 12:35:49;;;;;;;19;17;;;;;;;2.15;73.72461;963.3333;;;;
2019/12/04 12:38:15;;;;;;;20.9;17.7;;;;;;;2.12;74.2959;963.3145;;;;
2019/12/04 12:40:40;;;;;;;19.1;17;;;;;;;2.28;73.46582;963.2645;;;;
2019/12/04 12:43:06;;;;;;;18.5;16.6;;;;;;;2.23;73.96582;963.2014;;;;
2019/12/04 12:45:30;;;;;;;19.2;16.4;;;;;;;2.28;73.93848;963.1839;;;;
2019/12/04 12:47:55;;;;;;;21.9;18.3;;;;;;;2.22;74.34668;963.166;;;;
2019/12/04 12:50:21;;;;;;;19.8;17;;;;;;;2.27;73.67871;963.1525;;;;
2019/12/04 12:52:46;;;;;;;18.8;16.7;;;;;;;2.34;73.66699;963.1245;;;;
2019/12/04 12:55:12;;;;;;;18.2;16.3;;;;;;;2.34;73.35254;963.0717;;;;
2019/12/04 13:00:20;;;;;;;17.9;16;;;;;;;2.47;73.62402;963.0394;;;;
2019/12/04 13:02:28;;;;;;;20.7;17.3;;;;;;;2.33;73;963.0524;;;;
2019/12/04 13:04:51;;;;;;;21.7;17;;;;;;;2.34;73.13672;963.0715;;;;
2019/12/04 13:07:17;;;;;;;19.5;17.4;;;;;;;2.39;73.8457;962.9969;;;;
2019/12/04 13:09:42;;;;;;;19.9;17.8;;;;;;;2.28;73.91797;962.9647;;;;
2019/12/04 13:12:08;;;;;;;19.7;17.5;;;;;;;2.29;73.9873;962.9006;;;;
2019/12/04 13:14:33;;;;;;;20.4;17.7;;;;;;;2.21;74.45605;962.9337;;;;
2019/12/04 13:16:58;;;;;;;19.9;17.6;;;;;;;2.23;73.99707;962.959;;;;
2019/12/04 13:19:24;;;;;;;19.5;17.3;;;;;;;2.23;73.91992;962.9889;;;;
2019/12/04 13:21:49;;;;;;;19.5;16.9;;;;;;;2.34;73.66699;962.9661;;;;
2019/12/04 13:24:15;;;;;;;20.5;16.7;;;;;;;2.47;73.66797;962.8807;;;;
2019/12/04 13:26:40;;;;;;;19.7;16.5;;;;;;;2.38;73.4375;962.8624;;;;
2019/12/04 13:29:05;;;;;;;19.7;16.2;;;;;;;2.26;72.8291;962.8716;;;;
2019/12/04 13:31:30;;;;;;;17.8;15.9;;;;;;;2.23;73.3418;962.8497;;;;
2019/12/04 13:33:56;;;;;;;18.4;15.2;;;;;;;2.27;73.19336;962.8325;;;;
2019/12/04 13:36:21;;;;;;;18.3;15.1;;;;;;;2.32;72.625;962.7278;;;;
2019/12/04 13:38:47;;;;;;;16.8;15;;;;;;;2.33;72.35645;962.7678;;;;
2019/12/04 13:41:12;;;;;;;17.8;14.9;;;;;;;2.3;71.97852;962.7587;;;;
2019/12/04 13:43:37;;;;;;;17.7;14.5;;;;;;;2.31;72.12598;962.7361;;;;
2019/12/04 13:46:02;;;;;;;16.7;14.7;;;;;;;2.27;71.79395;962.7347;;;;
2019/12/04 13:48:27;;;;;;;16.3;14.6;;;;;;;2.21;72.05273;962.6973;;;;
2019/12/04 13:50:52;;;;;;;17.3;14.4;;;;;;;2.41;71.02637;962.691;;;;
2019/12/04 13:53:18;;;;;;;17.4;14.3;;;;;;;2.44;71.04199;962.7512;;;;
2019/12/04 13:55:45;;;;;;;16.2;14.5;;;;;;;2.46;71.0127;962.7758;;;;
2019/12/04 13:58:14;;;;;;;17.4;14.9;;;;;;;2.42;71.30957;962.7388;;;;
2019/12/04 14:01:17;;;;;;;17.7;14.9;;;;;;;2.36;71.85254;962.7556;;;;
2019/12/04 14:05:34;;;;;;;17.7;15.4;;;;;;;2.29;72.51953;962.7119;;;;
2019/12/04 14:07:48;;;;;;;18.2;16.3;;;;;;;2.3;72.39648;962.721;;;;
2019/12/04 14:10:13;;;;;;;19.3;16.5;;;;;;;2.26;72.7168;962.706;;;;
2019/12/04 14:12:39;;;;;;;19.6;16.6;;;;;;;2.11;73.19922;962.7234;;;;
2019/12/04 14:15:04;;;;;;;18.2;16.3;;;;;;;2.14;73.71191;962.786;;;;
2019/12/04 14:17:30;;;;;;;21.7;17.5;;;;;;;2.12;73.25781;962.7332;;;;
2019/12/04 14:19:55;;;;;;;20.2;17.4;;;;;;;2.12;73.91211;962.7181;;;;
2019/12/04 14:22:21;;;;;;;20.2;16.8;;;;;;;2.17;73.33496;962.6897;;;;
2019/12/04 14:24:46;;;;;;;20.8;16.7;;;;;;;2.2;73.35059;962.6849;;;;
2019/12/04 14:27:11;;;;;;;21.3;16.8;;;;;;;2.19;73.48438;962.6548;;;;
2019/12/04 14:29:36;;;;;;;20;16.6;;;;;;;2.16;73.81641;962.5937;;;;
2019/12/04 14:32:01;;;;;;;23.9;18;;;;;;;2.11;73.71875;962.5836;;;;
2019/12/04 14:34:27;;;;;;;21;16.6;;;;;;;2.16;73.7959;962.6003;;;;
2019/12/04 14:36:52;;;;;;;22;17.3;;;;;;;2.2;73.41797;962.563;;;;
2019/12/04 14:39:18;;;;;;;20;17.3;;;;;;;2.17;74.31641;962.5481;;;;
2019/12/04 14:41:43;;;;;;;20.1;17.8;;;;;;;2.14;74.17578;962.5355;;;;
2019/12/04 14:44:08;;;;;;;19.5;16.7;;;;;;;2.17;73.9209;962.5477;;;;
2019/12/04 14:46:33;;;;;;;20;17.4;;;;;;;2.17;74.28223;962.5226;;;;
2019/12/04 14:48:59;;;;;;;20;16.9;;;;;;;2.15;74.8418;962.4797;;;;
2019/12/04 14:51:24;;;;;;;20.2;17.6;;;;;;;2.15;74.80859;962.4465;;;;
2019/12/04 14:53:50;;;;;;;19.8;17.2;;;;;;;2.18;74.41797;962.4547;;;;
2019/12/04 14:56:15;;;;;;;21.8;17.3;;;;;;;2.14;74.1875;962.4406;;;;
2019/12/04 14:58:40;;;;;;;24.1;16.8;;;;;;;2.12;74.39746;962.4716;;;;
2019/12/04 15:01:05;;;;;;;24.3;17.9;;;;;;;2.04;74.54102;962.4441;;;;
2019/12/04 15:03:30;;;;;;;20.2;16.7;;;;;;;2.08;74.78613;962.4244;;;;
2019/12/04 15:05:56;;;;;;;20.5;16.6;;;;;;;2.08;74.55859;962.4572;;;;
2019/12/04 15:08:21;;;;;;;20.2;17.5;;;;;;;2.01;75.46094;962.4754;;;;
2019/12/04 15:10:46;;;;;;;22.1;17.2;;;;;;;2.02;75.33691;962.4434;;;;
2019/12/04 15:13:11;;;;;;;21.4;17.3;;;;;;;2.03;75.19238;962.4559;;;;
2019/12/04 15:15:36;;;;;;;20.1;17;;;;;;;1.94;75.59375;962.4686;;;;
2019/12/04 15:18:01;;;;;;;20.9;17;;;;;;;1.88;76.28516;962.4188;;;;
2019/12/04 15:20:26;;;;;;;19.4;16.5;;;;;;;2.05;75.45605;962.4387;;;;
2019/12/04 15:22:51;;;;;;;19.1;16.4;;;;;;;1.92;75.94043;962.4539;;;;
2019/12/04 15:25:16;;;;;;;20;16.8;;;;;;;1.95;76.05957;962.4446;;;;
2019/12/04 15:27:43;;;;;;;20.7;16.5;;;;;;;1.87;75.96582;962.4207;;;;
2019/12/04 15:30:23;;;;;;;19.5;15.9;;;;;;;1.89;75.83496;962.4469;;;;
2019/12/04 15:33:53;;;;;;;20;16.2;;;;;;;1.89;76.14941;962.4434;;;;
2019/12/04 15:34:58;;;;;;;19;15.9;;;;;;;1.83;76.77148;962.454;;;;